createdAt,value
2022-09-10T00:01:03.623Z,4.07
2022-09-10T00:03:31.410Z,4.80
2022-09-10T00:05:59.239Z,5.60
2022-09-10T00:08:26.983Z,2.33
2022-09-10T00:10:54.774Z,3.63
2022-09-10T00:13:24.438Z,2.97
2022-09-10T00:15:54.609Z,5.53
2022-09-10T00:18:23.583Z,2.35
2022-09-10T00:20:53.483Z,3.55
2022-09-10T00:23:23.740Z,4.22
2022-09-10T00:25:52.104Z,1.98
2022-09-10T00:28:21.455Z,3.67
2022-09-10T00:30:53.158Z,3.42
2022-09-10T00:33:22.296Z,4.97
2022-09-10T00:35:50.491Z,4.15
2022-09-10T00:38:18.837Z,3.70
2022-09-10T00:40:46.879Z,6.27
2022-09-10T00:43:16.492Z,3.22
2022-09-10T00:45:46.685Z,3.33
2022-09-10T00:48:20.289Z,2.75
2022-09-10T00:50:51.806Z,4.45
2022-09-10T00:53:24.066Z,4.25
2022-09-10T00:55:54.878Z,6.85
2022-09-10T00:58:24.523Z,3.83
2022-09-10T01:00:55.107Z,6.03
2022-09-10T01:03:25.660Z,6.90
2022-09-10T01:05:54.666Z,5.18
2022-09-10T01:08:22.565Z,3.30
2022-09-10T01:10:59.717Z,5.75
2022-09-10T01:13:38.842Z,4.93
2022-09-10T01:18:52.476Z,3.63
2022-09-10T01:21:26.575Z,5.90
2022-09-10T01:24:38.966Z,4.80
2022-09-10T01:27:29.642Z,6.78
2022-09-10T01:30:03.344Z,6.38
2022-09-10T01:32:37.559Z,6.68
2022-09-10T01:35:14.515Z,4.88
2022-09-10T01:37:47.985Z,4.35
2022-09-10T01:40:17.685Z,5.53
2022-09-10T01:42:47.166Z,10.02
2022-09-10T01:48:11.886Z,5.05
2022-09-10T01:50:52.569Z,6.60
2022-09-10T01:53:48.330Z,8.27
2022-09-10T01:56:28.880Z,6.93
2022-09-10T01:59:05.097Z,6.07
2022-09-10T02:01:46.905Z,5.47
2022-09-10T02:04:16.845Z,4.28
2022-09-10T02:06:48.825Z,3.55
2022-09-10T02:09:19.216Z,3.17
2022-09-10T02:11:49.116Z,7.47
2022-09-10T02:14:36.440Z,7.43
2022-09-10T02:17:24.250Z,5.00
2022-09-10T02:19:53.809Z,3.97
2022-09-10T02:22:23.714Z,6.03
2022-09-10T02:24:52.913Z,7.40
2022-09-10T02:27:20.803Z,3.72
2022-09-10T02:29:50.666Z,5.78
2022-09-10T02:32:18.481Z,6.13
2022-09-10T02:34:46.327Z,6.88
2022-09-10T02:37:14.088Z,7.10
2022-09-10T02:39:42.272Z,5.88
2022-09-10T02:42:10.331Z,7.78
2022-09-10T02:44:38.045Z,4.10
2022-09-10T02:47:08.284Z,7.80
2022-09-10T02:49:37.101Z,4.65
2022-09-10T02:52:05.227Z,6.63
2022-09-10T02:54:33.167Z,4.85
2022-09-10T02:57:00.957Z,4.55
2022-09-10T02:59:28.979Z,6.35
2022-09-10T03:01:57.677Z,9.68
2022-09-10T03:04:26.805Z,9.18
2022-09-10T03:06:55.378Z,4.80
2022-09-10T03:09:23.504Z,10.93
2022-09-10T03:11:51.858Z,4.45
2022-09-10T03:16:51.093Z,3.92
2022-09-10T03:19:19.358Z,8.32
2022-09-10T03:21:48.540Z,9.33
2022-09-10T03:24:16.466Z,5.38
2022-09-10T03:26:46.289Z,3.33
2022-09-10T03:29:16.495Z,4.05
2022-09-10T03:31:46.671Z,8.40
2022-09-10T03:34:16.192Z,5.13
2022-09-10T03:36:47.574Z,5.15
2022-09-10T03:39:18.640Z,3.50
2022-09-10T03:41:47.118Z,4.90
2022-09-10T03:44:17.133Z,6.75
2022-09-10T03:46:45.541Z,6.45
2022-09-10T03:49:16.483Z,5.72
2022-09-10T03:51:44.363Z,4.20
2022-09-10T03:54:13.992Z,6.35
2022-09-10T03:56:45.383Z,3.88
2022-09-10T04:01:42.949Z,6.43
2022-09-10T04:04:11.232Z,4.15
2022-09-10T04:06:40.487Z,5.80
2022-09-10T04:09:08.415Z,4.57
2022-09-10T04:11:36.233Z,5.03
2022-09-10T04:14:05.967Z,8.52
2022-09-10T04:16:37.122Z,8.40
2022-09-10T04:19:06.715Z,6.55
2022-09-10T04:21:36.196Z,6.05
2022-09-10T04:24:04.169Z,3.88
2022-09-10T04:26:32.194Z,5.63
2022-09-10T04:29:00.099Z,2.92
2022-09-10T04:31:29.289Z,5.05
2022-09-10T04:34:02.080Z,5.88
2022-09-10T04:36:31.375Z,7.05
2022-09-10T04:38:59.877Z,6.10
2022-09-10T04:41:28.109Z,6.25
2022-09-10T04:43:55.940Z,5.15
2022-09-10T04:46:24.683Z,3.97
2022-09-10T04:48:56.053Z,4.72
2022-09-10T04:51:25.827Z,4.95
2022-09-10T04:53:55.244Z,7.47
2022-09-10T04:56:29.044Z,7.38
2022-09-10T04:58:57.001Z,6.95
2022-09-10T05:01:26.031Z,6.00
2022-09-10T05:03:56.096Z,6.20
2022-09-10T05:06:24.304Z,5.63
2022-09-10T05:08:52.083Z,8.05
2022-09-10T05:11:20.753Z,3.90
2022-09-10T05:13:49.354Z,4.40
2022-09-10T05:16:21.340Z,4.47
2022-09-10T05:18:49.406Z,5.55
2022-09-10T05:21:19.587Z,4.80
2022-09-10T05:23:47.992Z,6.45
2022-09-10T05:26:16.677Z,4.90
2022-09-10T05:28:44.768Z,4.63
2022-09-10T05:31:17.237Z,5.32
2022-09-10T05:33:46.327Z,5.95
2022-09-10T05:36:14.733Z,3.28
2022-09-10T05:38:45.760Z,3.30
2022-09-10T05:41:14.531Z,6.30
2022-09-10T05:43:46.765Z,6.35
2022-09-10T05:46:15.171Z,5.68
2022-09-10T05:48:47.129Z,6.30
2022-09-10T05:51:15.189Z,7.40
2022-09-10T05:53:46.153Z,11.68
2022-09-10T05:56:14.605Z,4.95
2022-09-10T05:58:45.034Z,3.92
2022-09-10T06:01:15.444Z,6.72
2022-09-10T06:03:44.633Z,9.40
2022-09-10T06:06:13.293Z,6.15
2022-09-10T06:08:53.950Z,3.58
2022-09-10T06:11:32.887Z,8.52
2022-09-10T06:14:00.722Z,9.88
2022-09-10T06:16:28.858Z,4.45
2022-09-10T06:21:29.251Z,10.82
2022-09-10T06:24:00.865Z,4.10
2022-09-10T06:26:33.135Z,8.90
2022-09-10T06:29:06.285Z,4.70
2022-09-10T06:34:04.209Z,6.45
2022-09-10T06:39:04.461Z,6.15
2022-09-10T06:41:45.843Z,4.85
2022-09-10T06:44:36.235Z,8.15
2022-09-10T06:50:10.602Z,9.02
2022-09-10T06:52:41.588Z,11.13
2022-09-10T06:55:13.589Z,4.80
2022-09-10T06:57:45.576Z,6.93
2022-09-10T07:00:16.549Z,4.53
2022-09-10T07:02:50.578Z,8.10
2022-09-10T07:09:23.192Z,7.63
2022-09-10T07:11:59.266Z,8.82
2022-09-10T07:14:30.295Z,9.63
2022-09-10T07:16:58.992Z,7.63
2022-09-10T07:19:30.739Z,8.23
2022-09-10T07:21:58.624Z,6.47
2022-09-10T07:24:27.020Z,7.00
2022-09-10T07:27:08.579Z,9.55
2022-09-10T07:29:37.453Z,6.40
2022-09-10T07:32:13.249Z,8.45
2022-09-10T07:34:41.470Z,9.20
2022-09-10T07:37:09.703Z,7.15
2022-09-10T07:39:38.198Z,8.88
2022-09-10T07:42:09.161Z,4.95
2022-09-10T07:44:37.771Z,7.30
2022-09-10T07:47:05.731Z,8.35
2022-09-10T07:49:33.958Z,6.47
2022-09-10T07:52:04.837Z,8.07
2022-09-10T07:54:38.679Z,5.13
2022-09-10T07:57:07.976Z,9.25
2022-09-10T07:59:37.105Z,9.13
2022-09-10T08:02:06.401Z,11.63
2022-09-10T08:04:37.555Z,9.07
2022-09-10T08:07:09.388Z,8.68
2022-09-10T08:09:39.349Z,7.05
2022-09-10T08:12:11.362Z,8.68
2022-09-10T08:17:07.767Z,6.95
2022-09-10T08:19:40.514Z,5.53
2022-09-10T08:22:13.311Z,10.25
2022-09-10T08:24:48.564Z,11.57
2022-09-10T08:27:18.705Z,7.80
2022-09-10T08:29:48.422Z,11.40
2022-09-10T08:32:16.277Z,9.20
2022-09-10T08:34:44.037Z,12.35
2022-09-10T08:37:12.921Z,9.27
2022-09-10T08:39:41.529Z,8.93
2022-09-10T08:42:17.409Z,7.32
2022-09-10T08:44:51.787Z,15.57
2022-09-10T08:47:33.401Z,8.57
2022-09-10T08:50:13.703Z,7.13
2022-09-10T08:52:46.831Z,6.07
2022-09-10T08:55:26.300Z,7.75
2022-09-10T08:57:59.300Z,7.78
2022-09-10T09:00:34.623Z,7.85
2022-09-10T09:03:13.422Z,8.48
2022-09-10T09:05:47.152Z,9.93
2022-09-10T09:08:20.082Z,8.85
2022-09-10T09:10:51.475Z,12.18
2022-09-10T09:13:45.457Z,7.88
2022-09-10T09:16:49.085Z,8.32
2022-09-10T09:19:25.929Z,14.10
2022-09-10T09:21:56.440Z,8.43
2022-09-10T09:24:40.740Z,12.30
2022-09-10T09:27:16.125Z,8.95
2022-09-10T09:29:50.979Z,8.77
2022-09-10T09:32:21.957Z,7.38
2022-09-10T09:34:52.196Z,9.30
2022-09-10T09:37:24.050Z,12.45
2022-09-10T09:40:03.830Z,8.65
2022-09-10T09:42:40.197Z,8.23
2022-09-10T09:45:19.957Z,6.40
2022-09-10T09:47:51.161Z,6.75
2022-09-10T09:50:19.401Z,10.13
2022-09-10T09:52:48.091Z,9.57
2022-09-10T09:55:28.304Z,9.98
2022-09-10T09:58:34.644Z,7.13
2022-09-10T10:01:14.557Z,10.48
2022-09-10T10:03:51.596Z,11.82
2022-09-10T10:06:22.215Z,9.63
2022-09-10T10:09:02.054Z,9.57
2022-09-10T10:11:42.926Z,11.02
2022-09-10T10:14:23.758Z,12.43
2022-09-10T10:16:57.381Z,10.95
2022-09-10T10:19:31.652Z,11.48
2022-09-10T10:22:21.300Z,10.25
2022-09-10T10:24:50.530Z,8.73
2022-09-10T10:30:00.220Z,13.75
2022-09-10T10:32:40.388Z,9.80
2022-09-10T10:35:27.594Z,9.48
2022-09-10T10:38:16.721Z,12.43
2022-09-10T10:43:28.075Z,8.25
2022-09-10T10:46:02.218Z,9.52
2022-09-10T10:48:40.944Z,9.10
2022-09-10T10:51:17.239Z,6.75
2022-09-10T10:54:18.325Z,8.18
2022-09-10T10:56:59.874Z,9.35
2022-09-10T10:59:44.647Z,7.28
2022-09-10T11:02:18.851Z,6.25
2022-09-10T11:04:50.553Z,8.55
2022-09-10T11:07:27.345Z,7.88
2022-09-10T11:10:02.346Z,8.65
2022-09-10T11:12:34.840Z,11.15
2022-09-10T11:15:20.756Z,10.27
2022-09-10T11:17:54.432Z,7.20
2022-09-10T11:20:29.900Z,8.15
2022-09-10T11:23:03.894Z,14.70
2022-09-10T11:25:38.091Z,8.88
2022-09-10T11:28:13.849Z,7.00
2022-09-10T11:30:46.280Z,9.93
2022-09-10T11:33:23.306Z,10.80
2022-09-10T11:35:56.758Z,10.50
2022-09-10T11:38:30.532Z,11.15
2022-09-10T11:41:10.179Z,10.57
2022-09-10T11:43:43.118Z,13.05
2022-09-10T11:46:16.125Z,10.77
2022-09-10T11:48:49.953Z,10.23
2022-09-10T11:51:22.261Z,10.07
2022-09-10T11:53:50.118Z,13.18
2022-09-10T11:56:30.057Z,11.13
2022-09-10T11:59:09.133Z,9.35
2022-09-10T12:04:35.743Z,12.27
2022-09-10T12:07:16.209Z,12.05
2022-09-10T12:09:52.775Z,9.40
2022-09-10T12:12:26.886Z,10.73
2022-09-10T12:14:54.975Z,10.77
2022-09-10T12:17:27.214Z,12.75
2022-09-10T12:19:59.470Z,13.02
2022-09-10T12:22:29.971Z,10.35
2022-09-10T12:25:02.271Z,18.52
2022-09-10T12:27:45.735Z,13.88
2022-09-10T12:31:02.825Z,14.27
2022-09-10T12:34:06.619Z,12.90
2022-09-10T12:37:19.775Z,10.13
2022-09-10T12:39:49.578Z,8.82
2022-09-10T12:42:34.569Z,10.45
2022-09-10T12:45:02.435Z,10.50
2022-09-10T12:47:46.782Z,11.95
2022-09-10T12:50:27.775Z,9.77
2022-09-10T12:53:18.140Z,11.88
2022-09-10T12:55:59.604Z,9.40
2022-09-10T12:58:40.729Z,11.20
2022-09-10T13:01:19.426Z,11.93
2022-09-10T13:03:56.057Z,12.73
2022-09-10T13:06:35.993Z,11.98
2022-09-10T13:09:16.819Z,12.18
2022-09-10T13:11:47.701Z,12.52
2022-09-10T13:14:20.652Z,11.68
2022-09-10T13:16:48.772Z,11.90
2022-09-10T13:19:48.886Z,11.60
2022-09-10T13:23:04.265Z,13.73
2022-09-10T13:25:36.675Z,9.65
2022-09-10T13:28:44.883Z,11.18
2022-09-10T13:31:19.375Z,11.65
2022-09-10T13:34:04.727Z,11.77
2022-09-10T13:36:38.837Z,10.15
2022-09-10T13:39:24.945Z,11.02
2022-09-10T13:42:08.331Z,9.40
2022-09-10T13:45:16.493Z,6.53
2022-09-10T13:47:48.414Z,12.45
2022-09-10T13:50:20.463Z,10.32
2022-09-10T13:52:51.231Z,12.10
2022-09-10T13:55:21.254Z,9.30
2022-09-10T13:57:51.010Z,9.23
2022-09-10T14:00:26.211Z,9.95
2022-09-10T14:02:56.174Z,8.55
2022-09-10T14:05:35.334Z,14.32
2022-09-10T14:10:48.594Z,10.10
2022-09-10T14:13:22.359Z,6.47
2022-09-10T14:15:54.310Z,6.78
2022-09-10T14:18:24.545Z,6.60
2022-09-10T14:20:53.398Z,6.45
2022-09-10T14:23:21.460Z,7.40
2022-09-10T14:25:49.288Z,7.95
2022-09-10T14:28:23.219Z,6.32
2022-09-10T14:30:54.321Z,7.43
2022-09-10T14:33:24.353Z,9.73
2022-09-10T14:35:53.265Z,7.32
2022-09-10T14:38:24.274Z,6.20
2022-09-10T14:40:58.738Z,5.97
2022-09-10T14:43:30.117Z,7.97
2022-09-10T14:45:59.695Z,7.45
2022-09-10T14:48:35.582Z,5.38
2022-09-10T14:51:14.418Z,6.40
2022-09-10T14:53:43.456Z,5.93
2022-09-10T14:58:43.976Z,4.90
2022-09-10T15:01:13.213Z,5.88
2022-09-10T15:03:42.266Z,3.97
2022-09-10T15:06:11.364Z,4.80
2022-09-10T15:11:07.935Z,5.40
2022-09-10T15:13:39.432Z,10.45
2022-09-10T15:16:07.711Z,4.43
2022-09-10T15:18:37.068Z,5.33
2022-09-10T15:21:07.087Z,4.50
2022-09-10T15:23:35.034Z,7.90
2022-09-10T15:26:04.955Z,7.25
2022-09-10T15:28:32.807Z,4.15
2022-09-10T15:31:01.159Z,9.40
2022-09-10T15:33:29.025Z,5.07
2022-09-10T15:35:58.197Z,6.55
2022-09-10T15:38:25.949Z,3.58
2022-09-10T15:41:03.380Z,4.55
2022-09-10T15:43:36.718Z,4.88
2022-09-10T15:46:04.699Z,4.95
2022-09-10T15:48:33.550Z,2.03
2022-09-10T15:51:04.271Z,3.47
2022-09-10T15:53:33.883Z,3.58
2022-09-10T15:56:03.286Z,4.05
2022-09-10T15:58:31.363Z,4.07
2022-09-10T16:01:03.951Z,6.10
2022-09-10T16:03:32.070Z,4.30
2022-09-10T16:06:06.661Z,2.65
2022-09-10T16:08:35.436Z,4.00
2022-09-10T16:11:09.631Z,6.45
2022-09-10T16:13:39.727Z,2.85
2022-09-10T16:16:11.037Z,3.95
2022-09-10T16:18:39.173Z,7.40
2022-09-10T16:21:11.481Z,5.50
2022-09-10T16:23:43.284Z,2.35
2022-09-10T16:26:15.903Z,5.60
2022-09-10T16:28:49.071Z,4.93
2022-09-10T16:31:18.931Z,3.20
2022-09-10T16:33:48.384Z,5.65
2022-09-10T16:36:19.036Z,5.75
2022-09-10T16:38:47.212Z,6.80
2022-09-10T16:41:16.287Z,5.65
2022-09-10T16:46:13.366Z,9.07
2022-09-10T16:51:12.851Z,6.63
2022-09-10T16:53:44.294Z,5.97
2022-09-10T16:56:14.853Z,4.90
2022-09-10T16:58:46.890Z,3.05
2022-09-10T17:01:15.626Z,3.95
2022-09-10T17:03:44.856Z,6.25
2022-09-10T17:08:45.087Z,4.93
2022-09-10T17:11:14.208Z,6.68
2022-09-10T17:16:15.342Z,6.85
2022-09-10T17:18:43.786Z,5.25
2022-09-10T17:21:11.770Z,5.32
2022-09-10T17:23:41.336Z,3.90
2022-09-10T17:26:10.547Z,6.80
2022-09-10T17:31:06.399Z,16.08
2022-09-10T17:33:35.332Z,6.13
2022-09-10T17:36:05.030Z,7.15
2022-09-10T17:38:35.182Z,5.00
2022-09-10T17:41:05.616Z,6.57
2022-09-10T17:43:37.652Z,3.72
2022-09-10T17:46:06.718Z,6.28
2022-09-10T17:48:35.785Z,3.88
2022-09-10T17:53:32.311Z,6.22
2022-09-10T17:56:03.842Z,2.38
2022-09-10T17:58:33.161Z,3.92
2022-09-10T18:01:04.801Z,3.83
2022-09-10T18:03:32.941Z,6.45
2022-09-10T18:06:04.294Z,4.25
2022-09-10T18:08:32.538Z,3.53
2022-09-10T18:11:05.916Z,3.13
2022-09-10T18:13:34.211Z,4.35
2022-09-10T18:16:07.627Z,4.70
2022-09-10T18:18:36.039Z,8.27
2022-09-10T18:21:14.214Z,3.33
2022-09-10T18:23:44.329Z,3.93
2022-09-10T18:26:14.311Z,5.38
2022-09-10T18:28:42.468Z,5.63
2022-09-10T18:31:12.270Z,8.35
2022-09-10T18:33:41.716Z,3.92
2022-09-10T18:36:14.858Z,4.30
2022-09-10T18:38:43.013Z,3.58
2022-09-10T18:41:21.549Z,5.47
2022-09-10T18:43:50.816Z,5.60
2022-09-10T18:46:20.842Z,3.45
2022-09-10T18:48:49.224Z,4.90
2022-09-10T18:51:19.327Z,7.63
2022-09-10T18:53:47.947Z,6.50
2022-09-10T18:56:18.035Z,5.45
2022-09-10T18:58:49.425Z,4.55
2022-09-10T19:01:18.447Z,3.28
2022-09-10T19:03:49.987Z,4.20
2022-09-10T19:06:19.564Z,3.03
2022-09-10T19:08:49.606Z,4.72
2022-09-10T19:11:18.977Z,5.13
2022-09-10T19:13:51.382Z,4.00
2022-09-10T19:16:20.078Z,3.78
2022-09-10T19:18:52.436Z,4.60
2022-09-10T19:21:21.135Z,4.47
2022-09-10T19:23:49.851Z,5.60
2022-09-10T19:26:19.123Z,4.55
2022-09-10T19:28:47.879Z,2.70
2022-09-10T19:31:17.651Z,5.05
2022-09-10T19:33:45.528Z,3.72
2022-09-10T19:36:16.471Z,4.45
2022-09-10T19:38:44.501Z,5.55
2022-09-10T19:41:13.689Z,6.50
2022-09-10T19:46:11.581Z,4.22
2022-09-10T19:48:39.946Z,5.35
2022-09-10T19:51:10.000Z,6.37
2022-09-10T19:53:40.384Z,6.57
2022-09-10T19:56:10.179Z,4.68
2022-09-10T19:58:41.986Z,6.97
2022-09-10T20:01:10.830Z,4.53
2022-09-10T20:03:40.316Z,5.93
2022-09-10T20:06:10.627Z,5.38
2022-09-10T20:08:41.567Z,7.85
2022-09-10T20:11:16.287Z,8.57
2022-09-10T20:13:45.180Z,5.95
2022-09-10T20:16:13.832Z,6.05
2022-09-10T20:18:42.315Z,5.28
2022-09-10T20:21:13.887Z,6.10
2022-09-10T20:23:44.744Z,7.72
2022-09-10T20:26:14.508Z,7.78
2022-09-10T20:28:42.844Z,6.15
2022-09-10T20:31:13.014Z,10.63
2022-09-10T20:33:43.430Z,7.40
2022-09-10T20:36:15.092Z,6.38
2022-09-10T20:38:44.555Z,4.22
2022-09-10T20:41:13.300Z,4.50
2022-09-10T20:43:41.453Z,12.57
2022-09-10T20:46:15.918Z,4.75
2022-09-10T20:48:48.810Z,6.18
2022-09-10T20:51:18.112Z,6.13
2022-09-10T20:53:48.461Z,5.95
2022-09-10T20:56:18.860Z,6.07
2022-09-10T20:58:48.035Z,5.38
2022-09-10T21:03:48.045Z,6.53
2022-09-10T21:06:19.678Z,7.20
2022-09-10T21:08:49.842Z,8.13
2022-09-10T21:11:19.334Z,6.80
2022-09-10T21:13:49.652Z,6.43
2022-09-10T21:16:18.917Z,5.60
2022-09-10T21:21:25.707Z,8.43
2022-09-10T21:23:56.600Z,8.40
2022-09-10T21:26:26.848Z,7.53
2022-09-10T21:28:57.238Z,7.65
2022-09-10T21:31:25.670Z,7.28
2022-09-10T21:33:54.627Z,6.70
2022-09-10T21:36:22.713Z,7.28
2022-09-10T21:38:51.953Z,9.73
2022-09-10T21:43:51.958Z,5.25
2022-09-10T21:46:19.745Z,8.50
2022-09-10T21:48:47.641Z,8.63
2022-09-10T21:51:17.843Z,10.82
2022-09-10T21:53:46.614Z,10.63
2022-09-10T21:56:16.670Z,13.10
2022-09-10T21:58:46.774Z,10.50
2022-09-10T22:01:17.340Z,11.07
2022-09-10T22:03:46.563Z,8.85
2022-09-10T22:08:45.643Z,12.82
2022-09-10T22:11:16.139Z,21.58
2022-09-10T22:13:46.761Z,8.93
2022-09-10T22:16:14.954Z,16.17
2022-09-10T22:18:43.296Z,7.75
2022-09-10T22:21:11.144Z,13.65
2022-09-10T22:23:40.488Z,12.18
2022-09-10T22:26:10.138Z,14.82
2022-09-10T22:28:38.389Z,14.68
2022-09-10T22:31:10.044Z,12.05
2022-09-10T22:33:39.051Z,12.23
2022-09-10T22:36:15.287Z,11.95
2022-09-10T22:38:44.078Z,12.52
2022-09-10T22:41:14.108Z,13.88
2022-09-10T22:43:42.744Z,14.00
2022-09-10T22:46:12.784Z,9.20
2022-09-10T22:48:42.648Z,7.50
2022-09-10T22:51:12.288Z,12.55
2022-09-10T22:53:41.282Z,15.25
2022-09-10T22:56:10.082Z,11.05
2022-09-10T22:58:38.062Z,15.20
2022-09-10T23:01:06.796Z,11.40
2022-09-10T23:03:36.670Z,13.07
2022-09-10T23:06:06.211Z,10.73
2022-09-10T23:08:35.526Z,12.25
2022-09-10T23:11:11.292Z,9.40
2022-09-10T23:13:39.951Z,13.43
2022-09-10T23:16:12.241Z,10.82
2022-09-10T23:18:41.995Z,9.73
2022-09-10T23:21:10.586Z,16.88
2022-09-10T23:23:38.496Z,9.93
2022-09-10T23:26:08.801Z,12.15
2022-09-10T23:28:37.346Z,13.43
2022-09-10T23:31:10.454Z,11.90
2022-09-10T23:33:38.283Z,9.60
2022-09-10T23:36:08.179Z,13.52
2022-09-10T23:38:36.623Z,11.00
2022-09-10T23:41:04.576Z,16.00
2022-09-10T23:43:32.493Z,11.15
2022-09-10T23:46:00.426Z,16.15
2022-09-10T23:48:29.573Z,13.30
2022-09-10T23:50:57.715Z,15.30
2022-09-10T23:53:26.874Z,20.10
2022-09-10T23:58:22.742Z,29.83
